地図

経路データ

SID SEASON NUMBER BASIN SUBBASIN NAME ISO_TIME NATURE LAT LON WMO_WIND WMO_PRES WMO_AGENCY TRACK_TYPE DIST2LAND LANDFALL IFLAG USA_AGENCY USA_ATCF_ID USA_LAT USA_LON USA_RECORD USA_STATUS USA_WIND USA_PRES USA_SSHS USA_R34_NE USA_R34_SE USA_R34_SW USA_R34_NW USA_R50_NE USA_R50_SE USA_R50_SW USA_R50_NW USA_R64_NE USA_R64_SE USA_R64_SW USA_R64_NW USA_POCI USA_ROCI USA_RMW USA_EYE TOKYO_LAT TOKYO_LON TOKYO_GRADE TOKYO_WIND TOKYO_PRES TOKYO_R50_DIR TOKYO_R50_LONG TOKYO_R50_SHORT TOKYO_R30_DIR TOKYO_R30_LONG TOKYO_R30_SHORT TOKYO_LAND CMA_LAT CMA_LON CMA_CAT CMA_WIND CMA_PRES HKO_LAT HKO_LON HKO_CAT HKO_WIND HKO_PRES NEWDELHI_LAT NEWDELHI_LON NEWDELHI_GRADE NEWDELHI_WIND NEWDELHI_PRES NEWDELHI_CI NEWDELHI_DP NEWDELHI_POCI REUNION_LAT REUNION_LON REUNION_TYPE REUNION_WIND REUNION_PRES REUNION_TNUM REUNION_CI REUNION_RMW REUNION_R34_NE REUNION_R34_SE REUNION_R34_SW REUNION_R34_NW REUNION_R50_NE REUNION_R50_SE REUNION_R50_SW REUNION_R50_NW REUNION_R64_NE REUNION_R64_SE REUNION_R64_SW REUNION_R64_NW BOM_LAT BOM_LON BOM_TYPE BOM_WIND BOM_PRES BOM_TNUM BOM_CI BOM_RMW BOM_R34_NE BOM_R34_SE BOM_R34_SW BOM_R34_NW BOM_R50_NE BOM_R50_SE BOM_R50_SW BOM_R50_NW BOM_R64_NE BOM_R64_SE BOM_R64_SW BOM_R64_NW BOM_ROCI BOM_POCI BOM_EYE BOM_POS_METHOD BOM_PRES_METHOD NADI_LAT NADI_LON NADI_CAT NADI_WIND NADI_PRES WELLINGTON_LAT WELLINGTON_LON WELLINGTON_WIND WELLINGTON_PRES DS824_LAT DS824_LON DS824_STAGE DS824_WIND DS824_PRES TD9636_LAT TD9636_LON TD9636_STAGE TD9636_WIND TD9636_PRES TD9635_LAT TD9635_LON TD9635_WIND TD9635_PRES TD9635_ROCI NEUMANN_LAT NEUMANN_LON NEUMANN_CLASS NEUMANN_WIND NEUMANN_PRES MLC_LAT MLC_LON MLC_CLASS MLC_WIND MLC_PRES USA_GUST BOM_GUST BOM_GUST_PER REUNION_GUST REUNION_GUST_PER USA_SEAHGT USA_SEARAD_NE USA_SEARAD_SE USA_SEARAD_SW USA_SEARAD_NW STORM_SPEED STORM_DIR
1955125N11084 1955 30 NI BB NOT_NAMED 1955-05-04 18:00:00 TS 11.0000 83.5000 main 351 351 O________O____ jtwc_io IO021955 11.0000 83.5000 -1 11.0000 83.5000 TC 3 350
1955125N11084 1955 30 NI BB NOT_NAMED 1955-05-04 21:00:00 TS 11.1350 83.4975 main 357 357 P________P____ IO021955 11.1350 83.4975 -1 11.1350 83.4975 TC 3 0
1955125N11084 1955 30 NI BB NOT_NAMED 1955-05-05 00:00:00 TS 11.3000 83.5000 main 370 370 O________O____ jtwc_io IO021955 11.3000 83.5000 -1 11.3000 83.5000 TC 25 4 4
1955125N11084 1955 30 NI BB NOT_NAMED 1955-05-05 03:00:00 TS 11.5178 83.5066 main 376 367 P________PO___ IO021955 11.5200 83.5075 -1 11.5200 83.5075 TC 25 11.5000 83.5000 1 5 0
1955125N11084 1955 30 NI BB NOT_NAMED 1955-05-05 06:00:00 TS 11.8088 83.4941 main 367 361 O________OP___ jtwc_io IO021955 11.8000 83.5000 -1 11.8000 83.5000 TC 25 11.8438 83.4704 1 6 354
1955125N11084 1955 30 NI BB NOT_NAMED 1955-05-05 09:00:00 TS 12.1527 83.4480 main 349 347 P________PP___ IO021955 12.1425 83.4501 -1 12.1425 83.4501 TC 25 12.1800 83.4427 1 7 352
1955125N11084 1955 30 NI BB NOT_NAMED 1955-05-05 12:00:00 TS 12.5004 83.4062 main 347 340 O________OP___ jtwc_io IO021955 12.5000 83.4000 -1 12.5000 83.4000 TC 25 12.5013 83.4186 1 7 357
1955125N11084 1955 30 NI BB NOT_NAMED 1955-05-05 15:00:00 TS 12.8100 83.4000 main 340 336 P________PO___ IO021955 12.8150 83.3999 -1 12.8150 83.3999 TC 25 12.8000 83.4000 1 6 358
1955125N11084 1955 30 NI BB NOT_NAMED 1955-05-05 18:00:00 TS 13.0910 83.3957 main 336 335 O________OP___ jtwc_io IO021955 13.1000 83.4000 -1 13.1000 83.4000 TC 25 13.0731 83.3870 1 5 355
1955125N11084 1955 30 NI BB NOT_NAMED 1955-05-05 21:00:00 TS 13.3450 83.3624 main 335 324 P________PP___ IO021955 13.3500 83.3575 -1 13.3500 83.3575 TC 25 13.3350 83.3722 1 5 352
1955125N11084 1955 30 NI BB NOT_NAMED 1955-05-06 00:00:00 TS 13.6015 83.3155 main 324 317 O________OP___ jtwc_io IO021955 13.6000 83.3000 -1 13.6000 83.3000 TC 25 13.6044 83.3464 1 6 351
1955125N11084 1955 30 NI BB NOT_NAMED 1955-05-06 03:00:00 TS 13.8850 83.2716 main 317 283 P________PO___ IO021955 13.8775 83.2574 -1 13.8775 83.2574 TC 25 13.9000 83.3000 1 6 350
1955125N11084 1955 30 NI BB NOT_NAMED 1955-05-06 06:00:00 TS 14.2195 83.2113 main 283 238 O________OP___ jtwc_io IO021955 14.2000 83.2000 -1 14.2000 83.2000 TC 25 14.2584 83.2337 1 7 348
1955125N11084 1955 30 NI BB NOT_NAMED 1955-05-06 09:00:00 TS 14.6092 83.1200 main 238 193 P________PP___ IO021955 14.5925 83.1075 -1 14.5925 83.1075 TC 30 14.6425 83.1450 1 8 346
1955125N11084 1955 30 NI BB NOT_NAMED 1955-05-06 12:00:00 TS 15.0101 83.0112 main 193 148 O________OP___ jtwc_io IO021955 15.0000 83.0000 -1 15.0000 83.0000 TC 35 15.0303 83.0337 1 8 345
1955125N11084 1955 30 NI BB NOT_NAMED 1955-05-06 15:00:00 TS 15.3766 82.9099 main 148 114 P________PO___ IO021955 15.3650 82.9149 -1 15.3650 82.9149 TC 35 15.4000 82.9000 2 7 342
1955125N11084 1955 30 NI BB NOT_NAMED 1955-05-06 18:00:00 TS 15.7140 82.7780 main 114 74 O________OP___ jtwc_io IO021955 15.7000 82.8000 -1 15.7000 82.8000 TC 35 15.7351 82.7449 2 7 335
1955125N11084 1955 30 NI BB NOT_NAMED 1955-05-06 21:00:00 TS 16.0215 82.5999 main 74 35 P________PP___ IO021955 16.0076 82.6202 -1 16.0076 82.6202 TC 35 16.0401 82.5729 2 7 328
1955125N11084 1955 30 NI BB NOT_NAMED 1955-05-07 00:00:00 TS 16.3126 82.3947 main 35 0 O________OP___ jtwc_io IO021955 16.3000 82.4000 -1 16.3000 82.4000 TC 35 16.3251 82.3894 2 7 326
1955125N11084 1955 30 NI BB NOT_NAMED 1955-05-07 03:00:00 NR 16.6000 82.2000 main 0 __________O___ IO021955 -1 TC 16.6000 82.2000 3 7 327

IBTrACS Databaseについて

本データベースは、米国NOAAが公開する1842年以降の世界の熱帯低気圧のベストトラックデータアーカイブInternational Best Track Archive for Climate Stewardship (IBTrACS)を、ウェブで閲覧しやすい形式に変換したものです。

最終更新日:2021-11-26